createdAt,value
2019-01-13T00:05:49.481Z,99621.99
2019-01-13T00:09:07.382Z,99642.80
2019-01-13T00:12:35.559Z,99639.28
2019-01-13T00:15:54.744Z,99634.02
2019-01-13T00:19:17.124Z,99632.14
2019-01-13T00:22:32.325Z,99635.64
2019-01-13T00:25:55.092Z,99629.58
2019-01-13T00:29:10.873Z,99623.88
2019-01-13T00:32:33.257Z,99618.16
2019-01-13T00:35:50.577Z,99620.27
2019-01-13T00:39:13.335Z,99624.23
2019-01-13T00:42:29.088Z,99629.57
2019-01-13T00:45:51.844Z,99637.31
2019-01-13T00:49:08.164Z,99633.38
2019-01-13T00:52:30.889Z,99630.38
2019-01-13T00:55:46.895Z,99632.57
2019-01-13T00:59:09.572Z,99623.41
2019-01-13T01:02:25.441Z,99614.16
2019-01-13T01:05:48.140Z,99603.63
2019-01-13T01:09:06.417Z,99607.07
2019-01-13T01:12:29.003Z,99606.69
2019-01-13T01:15:44.710Z,99558.92
2019-01-13T01:19:07.371Z,99589.26
2019-01-13T01:22:22.655Z,99595.89
2019-01-13T01:25:45.010Z,99591.98
2019-01-13T01:29:00.948Z,99527.09
2019-01-13T01:32:24.040Z,99592.77
2019-01-13T01:35:39.125Z,99594.58
2019-01-13T01:38:55.848Z,99591.02
2019-01-13T01:42:18.574Z,99592.31
2019-01-13T01:45:34.032Z,99544.02
2019-01-13T01:48:49.416Z,99582.34
2019-01-13T01:52:12.371Z,99578.30
2019-01-13T01:55:27.942Z,99575.25
2019-01-13T01:58:50.357Z,99562.77
2019-01-13T02:02:12.043Z,99567.80
2019-01-13T02:05:15.150Z,99567.05
2019-01-13T02:08:19.265Z,99561.73
2019-01-13T02:11:22.185Z,99561.73
2019-01-13T02:14:25.492Z,99551.21
2019-01-13T02:17:28.387Z,99533.17
2019-01-13T02:20:31.303Z,99523.94
2019-01-13T02:23:34.352Z,99512.22
2019-01-13T02:26:37.277Z,99509.14
2019-01-13T02:29:41.086Z,99514.42
2019-01-13T02:32:44.396Z,99511.34
2019-01-13T02:35:48.715Z,99508.28
2019-01-13T02:38:52.300Z,99492.07
2019-01-13T02:41:55.216Z,99486.01
2019-01-13T02:44:58.116Z,99489.42
2019-01-13T02:48:01.880Z,99501.70
2019-01-13T02:51:06.206Z,99505.53
2019-01-13T02:54:09.512Z,99506.07
2019-01-13T02:57:12.430Z,99503.88
2019-01-13T03:00:22.520Z,99493.75
2019-01-13T03:03:25.449Z,99510.44
2019-01-13T03:06:29.851Z,99509.39
2019-01-13T03:09:32.751Z,99518.16
2019-01-13T03:12:36.170Z,99518.23
2019-01-13T03:15:39.070Z,99523.88
2019-01-13T03:18:43.556Z,99517.73
2019-01-13T03:21:46.489Z,99516.87
2019-01-13T03:24:50.035Z,99508.11
2019-01-13T03:27:52.951Z,99506.27
2019-01-13T03:30:55.984Z,99496.33
2019-01-13T03:33:59.995Z,99498.52
2019-01-13T03:37:02.921Z,99491.10
2019-01-13T03:40:12.347Z,99484.41
2019-01-13T03:43:15.693Z,99477.05
2019-01-13T03:46:18.583Z,99460.42
2019-01-13T03:49:21.823Z,99454.65
2019-01-13T03:52:24.771Z,99444.22
2019-01-13T03:55:27.689Z,99432.44
2019-01-13T03:58:30.636Z,99428.89
2019-01-13T04:01:34.242Z,99419.67
2019-01-13T04:04:37.167Z,99411.35
2019-01-13T04:07:40.065Z,99404.76
2019-01-13T04:10:43.651Z,99400.81
2019-01-13T04:13:46.573Z,99391.06
2019-01-13T04:16:50.512Z,99402.56
2019-01-13T04:19:53.440Z,99389.43
2019-01-13T04:22:56.342Z,99383.75
2019-01-13T04:26:00.759Z,99379.78
2019-01-13T04:29:04.143Z,99385.39
2019-01-13T04:32:07.073Z,99379.36
2019-01-13T04:35:10.343Z,99373.56
2019-01-13T04:38:13.598Z,99357.41
2019-01-13T04:41:16.834Z,99350.79
2019-01-13T04:44:20.083Z,99338.14
2019-01-13T04:47:22.981Z,99324.10
2019-01-13T04:50:25.925Z,99312.66
2019-01-13T04:53:29.485Z,99309.14
2019-01-13T04:56:33.105Z,99297.75
2019-01-13T04:59:36.289Z,99289.87
2019-01-13T05:02:39.231Z,99285.68
2019-01-13T05:05:42.141Z,99282.28
2019-01-13T05:08:45.798Z,99271.77
2019-01-13T05:11:48.718Z,99267.80
2019-01-13T05:14:51.940Z,99269.11
2019-01-13T05:17:55.408Z,99277.79
2019-01-13T05:20:59.587Z,99258.09
2019-01-13T05:24:02.867Z,99247.97
2019-01-13T05:27:06.059Z,99253.70
2019-01-13T05:30:22.579Z,99245.81
2019-01-13T05:33:25.531Z,99239.00
2019-01-13T05:36:28.456Z,99222.54
2019-01-13T05:39:31.355Z,99215.44
2019-01-13T05:42:34.592Z,99219.51
2019-01-13T05:45:37.845Z,99212.91
2019-01-13T05:48:40.782Z,99212.48
2019-01-13T05:51:43.678Z,99213.33
2019-01-13T05:54:46.597Z,99204.55
2019-01-13T05:57:49.826Z,99194.45
2019-01-13T06:00:52.822Z,99205.00
2019-01-13T06:03:56.551Z,99201.05
2019-01-13T06:06:59.768Z,99200.61
2019-01-13T06:10:03.886Z,99204.50
2019-01-13T06:13:08.216Z,99200.55
2019-01-13T06:16:11.110Z,99202.16
2019-01-13T06:19:14.376Z,99196.58
2019-01-13T06:22:17.292Z,99192.19
2019-01-13T06:25:20.212Z,99182.56
2019-01-13T06:28:23.130Z,99174.62
2019-01-13T06:31:26.316Z,99181.50
2019-01-13T06:34:30.132Z,99174.20
2019-01-13T06:37:33.029Z,99166.64
2019-01-13T06:40:36.322Z,99159.51
2019-01-13T06:43:39.532Z,99156.94
2019-01-13T06:46:43.226Z,99153.07
2019-01-13T06:49:46.465Z,99143.25
2019-01-13T06:52:49.395Z,99140.62
2019-01-13T06:55:52.731Z,99144.70
2019-01-13T06:58:56.438Z,99137.59
2019-01-13T07:02:03.303Z,99139.78
2019-01-13T07:05:05.707Z,99138.86
2019-01-13T07:08:08.676Z,99120.30
2019-01-13T07:11:11.588Z,99119.55
2019-01-13T07:14:14.885Z,99109.41
2019-01-13T07:17:17.867Z,99111.33
2019-01-13T07:20:21.637Z,99101.49
2019-01-13T07:23:26.044Z,99098.23
2019-01-13T07:26:29.412Z,99096.20
2019-01-13T07:29:32.700Z,99091.72
2019-01-13T07:32:35.617Z,99086.58
2019-01-13T07:35:38.553Z,99083.38
2019-01-13T07:38:41.471Z,99077.81
2019-01-13T07:41:45.108Z,99058.80
2019-01-13T07:44:49.006Z,99073.15
2019-01-13T07:47:52.294Z,99072.79
2019-01-13T07:50:55.495Z,99062.89
2019-01-13T07:53:59.142Z,99060.38
2019-01-13T07:57:02.412Z,99063.66
2019-01-13T08:00:10.946Z,99068.66
2019-01-13T08:03:15.532Z,99062.86
2019-01-13T08:06:18.474Z,99059.88
2019-01-13T08:09:33.676Z,99049.31
2019-01-13T08:12:56.355Z,99040.10
2019-01-13T08:16:11.404Z,99042.16
2019-01-13T08:19:33.794Z,99044.76
2019-01-13T08:22:48.983Z,99024.19
2019-01-13T08:26:11.750Z,99037.57
2019-01-13T08:29:28.728Z,98975.59
2019-01-13T08:32:51.468Z,99042.84
2019-01-13T08:36:06.860Z,99028.84
2019-01-13T08:39:29.241Z,99027.49
2019-01-13T08:42:44.550Z,99025.89
2019-01-13T08:46:06.948Z,99020.97
2019-01-13T08:49:22.348Z,99021.62
2019-01-13T08:52:44.734Z,98955.94
2019-01-13T08:56:00.471Z,99012.72
2019-01-13T08:59:23.167Z,99011.23
2019-01-13T09:02:40.395Z,98971.22
2019-01-13T09:06:02.782Z,99000.58
2019-01-13T09:09:25.183Z,98995.20
2019-01-13T09:12:48.052Z,98977.70
2019-01-13T09:16:03.619Z,98989.14
2019-01-13T09:19:26.276Z,98970.09
2019-01-13T09:22:42.191Z,98980.83
2019-01-13T09:26:04.556Z,98981.41
2019-01-13T09:29:20.301Z,98970.77
2019-01-13T09:32:43.064Z,98960.94
2019-01-13T09:35:58.500Z,98966.82
2019-01-13T09:39:20.979Z,98968.14
2019-01-13T09:42:36.888Z,98959.44
2019-01-13T09:45:51.964Z,98955.09
2019-01-13T09:49:07.305Z,98896.05
2019-01-13T09:52:29.673Z,98841.70
2019-01-13T09:55:44.788Z,98831.31
2019-01-13T09:59:07.168Z,98921.97
2019-01-13T10:02:22.685Z,98921.02
2019-01-13T10:05:38.984Z,98914.34
2019-01-13T10:09:01.694Z,98893.52
2019-01-13T10:12:19.181Z,98881.14
2019-01-13T10:15:22.791Z,98941.92
2019-01-13T10:18:45.690Z,98936.39
2019-01-13T10:22:01.419Z,98917.45
2019-01-13T10:25:24.141Z,98932.52
2019-01-13T10:28:39.561Z,98862.97
2019-01-13T10:31:56.473Z,98913.77
2019-01-13T10:35:18.934Z,98914.59
2019-01-13T10:38:33.979Z,98920.36
2019-01-13T10:41:56.821Z,98893.06
2019-01-13T10:45:13.564Z,98844.16
2019-01-13T10:48:30.389Z,98899.02
2019-01-13T10:51:52.894Z,98895.97
2019-01-13T10:55:09.167Z,98878.91
2019-01-13T10:58:24.320Z,98872.36
2019-01-13T11:01:46.772Z,98869.08
2019-01-13T11:05:02.613Z,98853.39
2019-01-13T11:08:18.105Z,98846.81
2019-01-13T11:11:40.833Z,98841.24
2019-01-13T11:14:57.313Z,98836.68
2019-01-13T11:18:20.021Z,98832.80
2019-01-13T11:21:35.538Z,98831.78
2019-01-13T11:24:50.921Z,98760.68
2019-01-13T11:28:13.968Z,98828.17
2019-01-13T11:31:29.593Z,98823.84
2019-01-13T11:34:44.894Z,98810.70
2019-01-13T11:38:20.228Z,98807.34
2019-01-13T11:41:42.601Z,98796.17
2019-01-13T11:44:58.550Z,98797.37
2019-01-13T11:48:14.037Z,98790.78
2019-01-13T11:51:29.301Z,98784.48
2019-01-13T11:54:44.579Z,98712.37
2019-01-13T11:58:06.952Z,98770.73
2019-01-13T12:01:22.253Z,98736.77
2019-01-13T12:04:44.652Z,98756.28
2019-01-13T12:07:59.918Z,98745.08
2019-01-13T12:11:15.320Z,98743.80
2019-01-13T12:14:39.327Z,98722.64
2019-01-13T12:17:42.347Z,98684.53
2019-01-13T12:20:58.147Z,98723.95
2019-01-13T12:24:20.828Z,98730.86
2019-01-13T12:27:36.446Z,98722.97
2019-01-13T12:30:58.842Z,98725.81
2019-01-13T12:34:14.110Z,98706.67
2019-01-13T12:37:29.804Z,98663.38
2019-01-13T12:40:52.827Z,98699.67
2019-01-13T12:44:08.017Z,98631.66
2019-01-13T12:47:30.425Z,98691.74
2019-01-13T12:50:46.023Z,98698.78
2019-01-13T12:54:08.424Z,98700.33
2019-01-13T12:57:24.167Z,98681.19
2019-01-13T13:00:46.613Z,98686.24
2019-01-13T13:04:01.883Z,98671.84
2019-01-13T13:07:24.406Z,98679.91
2019-01-13T13:10:40.990Z,98664.40
2019-01-13T13:14:03.730Z,98657.21
2019-01-13T13:17:19.955Z,98638.05
2019-01-13T13:20:35.901Z,98633.88
2019-01-13T13:23:58.439Z,98626.23
2019-01-13T13:27:13.944Z,98616.82
2019-01-13T13:30:29.206Z,98619.87
2019-01-13T13:33:52.013Z,98611.09
2019-01-13T13:37:07.210Z,98605.06
2019-01-13T13:40:22.809Z,98610.33
2019-01-13T13:43:44.442Z,98599.66
2019-01-13T13:47:00.361Z,98594.56
2019-01-13T13:50:17.365Z,98588.62
2019-01-13T13:53:33.208Z,98585.79
2019-01-13T13:56:48.588Z,98494.48
2019-01-13T14:04:10.664Z,98545.31
2019-01-13T14:07:26.055Z,98511.83
2019-01-13T14:10:48.443Z,98543.05
2019-01-13T14:14:03.937Z,98532.91
2019-01-13T14:17:19.110Z,98563.53
2019-01-13T14:20:41.523Z,98557.34
2019-01-13T14:23:56.899Z,98554.77
2019-01-13T14:27:19.300Z,98545.98
2019-01-13T14:30:24.625Z,98539.95
2019-01-13T14:33:52.804Z,98547.86
2019-01-13T14:37:24.162Z,98543.98
2019-01-13T14:40:46.929Z,98543.76
2019-01-13T14:44:02.357Z,98543.98
2019-01-13T14:47:24.748Z,98551.98
2019-01-13T14:50:40.164Z,98545.14
2019-01-13T14:53:55.204Z,98544.41
2019-01-13T14:57:10.496Z,98544.69
2019-01-13T15:00:33.249Z,98543.53
2019-01-13T15:03:49.171Z,98528.58
2019-01-13T15:07:11.571Z,98538.41
2019-01-13T15:10:26.539Z,98502.44
2019-01-13T15:13:42.037Z,98536.53
2019-01-13T15:17:04.707Z,98532.53
2019-01-13T15:20:20.849Z,98532.17
2019-01-13T15:23:43.258Z,98462.42
2019-01-13T15:26:59.062Z,98547.70
2019-01-13T15:30:26.912Z,98544.84
2019-01-13T15:33:42.712Z,98552.84
2019-01-13T15:37:05.111Z,98545.93
2019-01-13T15:40:20.232Z,98498.75
2019-01-13T15:43:42.627Z,98548.48
2019-01-13T15:46:46.381Z,98545.58
2019-01-13T15:50:01.821Z,98544.08
2019-01-13T15:53:24.556Z,98547.70
2019-01-13T15:56:39.596Z,98539.63
2019-01-13T15:59:42.498Z,98544.89
2019-01-13T16:02:58.750Z,98537.53
2019-01-13T16:06:21.150Z,98474.27
2019-01-13T16:09:37.552Z,98469.28
2019-01-13T16:12:53.491Z,98527.94
2019-01-13T16:16:16.877Z,98532.98
2019-01-13T16:19:32.803Z,98523.45
2019-01-13T16:22:48.327Z,98526.77
2019-01-13T16:26:10.724Z,98522.55
2019-01-13T16:29:27.046Z,98514.19
2019-01-13T16:32:49.463Z,98521.05
2019-01-13T16:36:05.104Z,98511.50
2019-01-13T16:39:27.500Z,98509.54
2019-01-13T16:42:42.696Z,98521.13
2019-01-13T16:45:58.552Z,98515.86
2019-01-13T16:49:14.666Z,98515.50
2019-01-13T16:56:32.857Z,98507.13
2019-01-13T16:59:48.510Z,98490.01
2019-01-13T17:03:11.196Z,98512.86
2019-01-13T17:06:26.786Z,98508.32
2019-01-13T17:09:49.264Z,98446.08
2019-01-13T17:13:04.537Z,98499.23
2019-01-13T17:16:19.607Z,98500.50
2019-01-13T17:19:42.321Z,98495.02
2019-01-13T17:22:58.305Z,98494.37
2019-01-13T17:26:20.720Z,98494.88
2019-01-13T17:29:36.529Z,98503.23
2019-01-13T17:32:58.917Z,98490.28
2019-01-13T17:36:14.334Z,98481.92
2019-01-13T17:39:37.025Z,98478.95
2019-01-13T17:42:53.024Z,98469.19
2019-01-13T17:46:15.409Z,98481.45
2019-01-13T17:49:31.273Z,98459.87
2019-01-13T17:52:53.768Z,98489.53
2019-01-13T17:56:09.597Z,98531.05
2019-01-13T17:59:31.971Z,98592.45
2019-01-13T18:02:47.336Z,98573.50
2019-01-13T18:06:09.732Z,98561.73
2019-01-13T18:09:25.242Z,98509.66
2019-01-13T18:12:41.191Z,98572.64
2019-01-13T18:16:03.568Z,98571.16
2019-01-13T18:19:18.742Z,98582.92
2019-01-13T18:22:41.175Z,98540.80
2019-01-13T18:25:56.288Z,98600.72
2019-01-13T18:29:11.542Z,98519.41
2019-01-13T18:32:33.937Z,98592.41
2019-01-13T18:35:49.348Z,98581.77
2019-01-13T18:39:05.757Z,98590.64
2019-01-13T18:42:22.630Z,98584.84
2019-01-13T18:45:38.065Z,98583.41
2019-01-13T18:48:53.534Z,98589.05
2019-01-13T18:52:16.605Z,98586.58
2019-01-13T18:55:32.238Z,98605.62
2019-01-13T18:58:54.695Z,98563.69
2019-01-13T19:02:08.486Z,98615.52
2019-01-13T19:05:24.240Z,98605.48
2019-01-13T19:08:47.303Z,98601.54
2019-01-13T19:12:02.764Z,98611.00
2019-01-13T19:15:18.000Z,98616.55
2019-01-13T19:18:40.458Z,98608.87
2019-01-13T19:21:55.529Z,98602.91
2019-01-13T19:25:22.055Z,98620.05
2019-01-13T19:28:37.448Z,98617.83
2019-01-13T19:32:00.144Z,98627.36
2019-01-13T19:35:15.734Z,98550.04
2019-01-13T19:38:31.905Z,98622.80
2019-01-13T19:41:47.372Z,98624.82
2019-01-13T19:49:07.259Z,98630.62
2019-01-13T19:52:23.110Z,98627.98
2019-01-13T19:55:45.606Z,98635.19
2019-01-13T19:59:01.444Z,98640.30
2019-01-13T20:02:24.343Z,98644.11
2019-01-13T20:05:39.768Z,98653.05
2019-01-13T20:09:14.099Z,98649.21
2019-01-13T20:12:36.710Z,98648.59
2019-01-13T20:15:52.106Z,98656.20
2019-01-13T20:19:14.613Z,98645.52
2019-01-13T20:22:30.410Z,98646.54
2019-01-13T20:25:52.838Z,98649.04
2019-01-13T20:29:08.233Z,98586.41
2019-01-13T20:32:31.075Z,98661.09
2019-01-13T20:35:46.983Z,98639.63
2019-01-13T20:43:06.646Z,98646.20
2019-01-13T20:46:29.338Z,98674.83
2019-01-13T20:49:44.713Z,98668.70
2019-01-13T20:53:07.552Z,98659.58
2019-01-13T20:56:23.351Z,98666.97
2019-01-13T20:59:46.345Z,98685.33
2019-01-13T21:03:03.350Z,98681.03
2019-01-13T21:06:25.752Z,98679.98
2019-01-13T21:09:41.608Z,98682.78
2019-01-13T21:12:58.986Z,98692.28
2019-01-13T21:16:21.377Z,98688.04
2019-01-13T21:19:37.400Z,98706.74
2019-01-13T21:22:52.940Z,98672.63
2019-01-13T21:26:15.409Z,98703.85
2019-01-13T21:29:31.395Z,98710.39
2019-01-13T21:32:47.148Z,98713.02
2019-01-13T21:36:03.196Z,98710.58
2019-01-13T21:39:25.593Z,98705.51
2019-01-13T21:42:41.145Z,98718.59
2019-01-13T21:46:04.310Z,98722.91
2019-01-13T21:49:21.858Z,98727.20
2019-01-13T21:52:44.499Z,98732.88
2019-01-13T21:55:59.634Z,98733.14
2019-01-13T21:59:23.470Z,98721.03
2019-01-13T22:02:59.666Z,98665.27
2019-01-13T22:06:22.138Z,98740.50
2019-01-13T22:09:37.356Z,98737.27
2019-01-13T22:13:00.153Z,98745.34
2019-01-13T22:16:15.855Z,98741.13
2019-01-13T22:19:38.267Z,98747.38
2019-01-13T22:22:53.742Z,98747.94
2019-01-13T22:26:16.459Z,98765.04
2019-01-13T22:29:32.397Z,98765.55
2019-01-13T22:32:55.080Z,98745.78
2019-01-13T22:36:11.173Z,98758.28
2019-01-13T22:39:33.583Z,98696.16
2019-01-13T22:42:49.570Z,98768.80
2019-01-13T22:46:05.046Z,98772.22
2019-01-13T22:49:28.760Z,98777.20
2019-01-13T22:52:44.038Z,98778.48
2019-01-13T22:55:59.892Z,98784.27
2019-01-13T22:59:22.328Z,98791.63
2019-01-13T23:02:37.939Z,98795.06
2019-01-13T23:06:00.723Z,98803.50
2019-01-13T23:09:14.346Z,98794.06
2019-01-13T23:12:36.840Z,98745.78
2019-01-13T23:15:52.243Z,98815.51
2019-01-13T23:19:14.937Z,98795.09
2019-01-13T23:22:30.583Z,98813.16
2019-01-13T23:25:52.995Z,98819.06
2019-01-13T23:29:08.937Z,98822.70
2019-01-13T23:32:24.260Z,98755.99
2019-01-13T23:35:39.584Z,98818.89
2019-01-13T23:38:43.213Z,98826.95
2019-01-13T23:41:46.544Z,98830.45
2019-01-13T23:45:09.982Z,98838.11
2019-01-13T23:48:26.048Z,98807.64
2019-01-13T23:51:48.546Z,98793.34
2019-01-13T23:55:04.500Z,98831.02
2019-01-13T23:58:19.893Z,98831.28
